sensor_id;sensor_type;location;lat;lon;timestamp;P1;durP1;ratioP1;P2;durP2;ratioP2
78324;SDS011;67584;51.400;6.692;2024-01-11T00:01:15;25.73;;;14.70;;
78324;SDS011;67584;51.400;6.692;2024-01-11T00:03:41;27.83;;;15.13;;
78324;SDS011;67584;51.400;6.692;2024-01-11T00:06:07;22.90;;;13.77;;
78324;SDS011;67584;51.400;6.692;2024-01-11T00:08:33;34.70;;;18.10;;
78324;SDS011;67584;51.400;6.692;2024-01-11T00:10:59;30.23;;;16.15;;
78324;SDS011;67584;51.400;6.692;2024-01-11T00:13:25;28.67;;;14.27;;
78324;SDS011;67584;51.400;6.692;2024-01-11T00:15:52;27.10;;;15.32;;
78324;SDS011;67584;51.400;6.692;2024-01-11T00:18:18;32.35;;;15.98;;
78324;SDS011;67584;51.400;6.692;2024-01-11T00:20:44;27.92;;;15.68;;
78324;SDS011;67584;51.400;6.692;2024-01-11T00:23:10;28.60;;;16.00;;
78324;SDS011;67584;51.400;6.692;2024-01-11T00:25:37;30.23;;;15.23;;
78324;SDS011;67584;51.400;6.692;2024-01-11T00:28:03;30.75;;;14.45;;
78324;SDS011;67584;51.400;6.692;2024-01-11T00:30:29;29.80;;;16.02;;
78324;SDS011;67584;51.400;6.692;2024-01-11T00:32:55;31.00;;;17.92;;
78324;SDS011;67584;51.400;6.692;2024-01-11T00:35:21;32.28;;;18.85;;
78324;SDS011;67584;51.400;6.692;2024-01-11T00:37:48;30.27;;;16.52;;
78324;SDS011;67584;51.400;6.692;2024-01-11T00:40:14;29.83;;;15.88;;
78324;SDS011;67584;51.400;6.692;2024-01-11T00:42:40;27.73;;;14.77;;
78324;SDS011;67584;51.400;6.692;2024-01-11T00:45:06;29.77;;;15.48;;
78324;SDS011;67584;51.400;6.692;2024-01-11T00:50:34;27.85;;;16.05;;
78324;SDS011;67584;51.400;6.692;2024-01-11T00:53:00;32.13;;;15.43;;
78324;SDS011;67584;51.400;6.692;2024-01-11T00:55:26;25.95;;;14.82;;
78324;SDS011;67584;51.400;6.692;2024-01-11T00:57:52;31.15;;;15.27;;
78324;SDS011;67584;51.400;6.692;2024-01-11T01:00:18;30.67;;;15.30;;
78324;SDS011;67584;51.400;6.692;2024-01-11T01:02:44;34.85;;;17.10;;
78324;SDS011;67584;51.400;6.692;2024-01-11T01:05:13;29.35;;;15.25;;
78324;SDS011;67584;51.400;6.692;2024-01-11T01:07:40;30.13;;;15.13;;
78324;SDS011;67584;51.400;6.692;2024-01-11T01:10:06;36.33;;;16.58;;
78324;SDS011;67584;51.400;6.692;2024-01-11T01:12:33;32.00;;;16.77;;
78324;SDS011;67584;51.400;6.692;2024-01-11T01:14:59;30.80;;;17.13;;
78324;SDS011;67584;51.400;6.692;2024-01-11T01:17:25;30.65;;;16.50;;
78324;SDS011;67584;51.400;6.692;2024-01-11T01:19:51;31.23;;;16.00;;
78324;SDS011;67584;51.400;6.692;2024-01-11T01:22:18;29.30;;;15.18;;
78324;SDS011;67584;51.400;6.692;2024-01-11T01:24:44;32.75;;;16.13;;
78324;SDS011;67584;51.400;6.692;2024-01-11T01:32:56;28.60;;;17.90;;
78324;SDS011;67584;51.400;6.692;2024-01-11T01:35:22;30.00;;;15.55;;
78324;SDS011;67584;51.400;6.692;2024-01-11T01:37:48;31.02;;;15.38;;
78324;SDS011;67584;51.400;6.692;2024-01-11T01:40:14;26.85;;;15.77;;
78324;SDS011;67584;51.400;6.692;2024-01-11T01:42:41;33.67;;;15.93;;
78324;SDS011;67584;51.400;6.692;2024-01-11T01:45:09;30.98;;;15.57;;
78324;SDS011;67584;51.400;6.692;2024-01-11T01:47:35;28.25;;;15.48;;
78324;SDS011;67584;51.400;6.692;2024-01-11T01:50:06;29.75;;;15.73;;
78324;SDS011;67584;51.400;6.692;2024-01-11T01:52:32;29.02;;;16.00;;
78324;SDS011;67584;51.400;6.692;2024-01-11T01:54:59;32.53;;;16.63;;
78324;SDS011;67584;51.400;6.692;2024-01-11T01:57:27;30.25;;;15.80;;
78324;SDS011;67584;51.400;6.692;2024-01-11T01:59:55;30.67;;;15.60;;
78324;SDS011;67584;51.400;6.692;2024-01-11T02:02:22;34.45;;;17.02;;
78324;SDS011;67584;51.400;6.692;2024-01-11T02:04:48;29.23;;;15.95;;
78324;SDS011;67584;51.400;6.692;2024-01-11T02:07:15;30.95;;;17.20;;
78324;SDS011;67584;51.400;6.692;2024-01-11T02:09:41;33.22;;;17.33;;
78324;SDS011;67584;51.400;6.692;2024-01-11T02:12:09;35.53;;;18.95;;
78324;SDS011;67584;51.400;6.692;2024-01-11T02:14:38;31.40;;;15.93;;
78324;SDS011;67584;51.400;6.692;2024-01-11T02:17:07;27.70;;;16.60;;
78324;SDS011;67584;51.400;6.692;2024-01-11T02:19:36;31.45;;;16.42;;
78324;SDS011;67584;51.400;6.692;2024-01-11T02:22:11;35.28;;;16.65;;
78324;SDS011;67584;51.400;6.692;2024-01-11T02:27:10;27.95;;;15.75;;
78324;SDS011;67584;51.400;6.692;2024-01-11T02:29:36;28.42;;;15.02;;
78324;SDS011;67584;51.400;6.692;2024-01-11T02:32:02;30.17;;;16.17;;
78324;SDS011;67584;51.400;6.692;2024-01-11T02:34:28;36.88;;;17.83;;
78324;SDS011;67584;51.400;6.692;2024-01-11T02:36:55;35.65;;;17.23;;
78324;SDS011;67584;51.400;6.692;2024-01-11T02:39:22;35.85;;;17.45;;
78324;SDS011;67584;51.400;6.692;2024-01-11T02:41:53;36.13;;;17.77;;
78324;SDS011;67584;51.400;6.692;2024-01-11T02:44:23;33.80;;;17.23;;
78324;SDS011;67584;51.400;6.692;2024-01-11T02:46:50;29.20;;;14.93;;
78324;SDS011;67584;51.400;6.692;2024-01-11T02:49:16;37.40;;;17.67;;
78324;SDS011;67584;51.400;6.692;2024-01-11T02:51:42;35.72;;;19.00;;
78324;SDS011;67584;51.400;6.692;2024-01-11T02:54:11;30.27;;;17.45;;
78324;SDS011;67584;51.400;6.692;2024-01-11T02:56:37;30.83;;;16.35;;
78324;SDS011;67584;51.400;6.692;2024-01-11T02:59:03;32.80;;;17.80;;
78324;SDS011;67584;51.400;6.692;2024-01-11T03:01:29;30.98;;;15.90;;
78324;SDS011;67584;51.400;6.692;2024-01-11T03:03:56;32.53;;;17.02;;
78324;SDS011;67584;51.400;6.692;2024-01-11T03:06:23;31.60;;;16.85;;
78324;SDS011;67584;51.400;6.692;2024-01-11T03:08:49;36.22;;;17.35;;
78324;SDS011;67584;51.400;6.692;2024-01-11T03:11:15;31.25;;;17.65;;
78324;SDS011;67584;51.400;6.692;2024-01-11T03:13:44;33.78;;;17.83;;
78324;SDS011;67584;51.400;6.692;2024-01-11T03:16:10;36.15;;;16.77;;
78324;SDS011;67584;51.400;6.692;2024-01-11T03:18:36;39.10;;;18.67;;
78324;SDS011;67584;51.400;6.692;2024-01-11T03:21:03;37.33;;;17.30;;
78324;SDS011;67584;51.400;6.692;2024-01-11T03:23:29;30.20;;;15.85;;
78324;SDS011;67584;51.400;6.692;2024-01-11T03:25:58;31.35;;;16.63;;
78324;SDS011;67584;51.400;6.692;2024-01-11T03:28:24;32.80;;;17.40;;
78324;SDS011;67584;51.400;6.692;2024-01-11T03:30:50;31.60;;;15.90;;
78324;SDS011;67584;51.400;6.692;2024-01-11T03:33:16;34.15;;;18.17;;
78324;SDS011;67584;51.400;6.692;2024-01-11T03:35:42;30.48;;;17.45;;
78324;SDS011;67584;51.400;6.692;2024-01-11T03:38:09;29.98;;;17.98;;
78324;SDS011;67584;51.400;6.692;2024-01-11T03:40:35;34.47;;;18.48;;
78324;SDS011;67584;51.400;6.692;2024-01-11T03:43:04;31.23;;;15.43;;
78324;SDS011;67584;51.400;6.692;2024-01-11T03:45:32;28.77;;;16.15;;
78324;SDS011;67584;51.400;6.692;2024-01-11T03:47:59;32.97;;;16.67;;
78324;SDS011;67584;51.400;6.692;2024-01-11T03:50:25;29.23;;;16.75;;
78324;SDS011;67584;51.400;6.692;2024-01-11T03:52:51;34.42;;;15.68;;
78324;SDS011;67584;51.400;6.692;2024-01-11T03:55:17;31.38;;;16.25;;
78324;SDS011;67584;51.400;6.692;2024-01-11T03:57:46;33.85;;;17.63;;
78324;SDS011;67584;51.400;6.692;2024-01-11T04:00:12;28.27;;;15.30;;
78324;SDS011;67584;51.400;6.692;2024-01-11T04:02:39;33.90;;;15.02;;
78324;SDS011;67584;51.400;6.692;2024-01-11T04:05:05;36.72;;;16.33;;
78324;SDS011;67584;51.400;6.692;2024-01-11T04:07:31;32.85;;;16.25;;
78324;SDS011;67584;51.400;6.692;2024-01-11T04:09:57;33.65;;;14.70;;
78324;SDS011;67584;51.400;6.692;2024-01-11T04:12:23;28.55;;;14.82;;
78324;SDS011;67584;51.400;6.692;2024-01-11T04:14:49;29.17;;;15.20;;
78324;SDS011;67584;51.400;6.692;2024-01-11T04:17:15;32.47;;;16.98;;
78324;SDS011;67584;51.400;6.692;2024-01-11T04:19:41;32.60;;;17.55;;
78324;SDS011;67584;51.400;6.692;2024-01-11T04:22:07;29.25;;;16.30;;
78324;SDS011;67584;51.400;6.692;2024-01-11T04:24:34;27.80;;;15.35;;
78324;SDS011;67584;51.400;6.692;2024-01-11T04:27:00;32.63;;;16.48;;
78324;SDS011;67584;51.400;6.692;2024-01-11T04:29:26;31.65;;;15.45;;
78324;SDS011;67584;51.400;6.692;2024-01-11T04:31:52;28.60;;;15.30;;
78324;SDS011;67584;51.400;6.692;2024-01-11T04:34:18;33.50;;;16.55;;
78324;SDS011;67584;51.400;6.692;2024-01-11T04:36:52;28.17;;;15.23;;
78324;SDS011;67584;51.400;6.692;2024-01-11T04:39:21;28.60;;;16.23;;
78324;SDS011;67584;51.400;6.692;2024-01-11T04:41:47;28.35;;;15.13;;
78324;SDS011;67584;51.400;6.692;2024-01-11T04:44:13;27.67;;;16.02;;
78324;SDS011;67584;51.400;6.692;2024-01-11T04:46:39;31.75;;;16.17;;
78324;SDS011;67584;51.400;6.692;2024-01-11T04:49:05;33.13;;;15.85;;
78324;SDS011;67584;51.400;6.692;2024-01-11T04:51:31;32.85;;;14.38;;
78324;SDS011;67584;51.400;6.692;2024-01-11T04:53:57;28.83;;;15.98;;
78324;SDS011;67584;51.400;6.692;2024-01-11T04:56:23;27.55;;;16.15;;
78324;SDS011;67584;51.400;6.692;2024-01-11T04:58:49;31.98;;;15.93;;
78324;SDS011;67584;51.400;6.692;2024-01-11T05:01:16;32.05;;;16.73;;
78324;SDS011;67584;51.400;6.692;2024-01-11T05:03:43;36.08;;;16.90;;
78324;SDS011;67584;51.400;6.692;2024-01-11T05:06:17;27.58;;;15.27;;
78324;SDS011;67584;51.400;6.692;2024-01-11T05:08:51;33.30;;;16.48;;
78324;SDS011;67584;51.400;6.692;2024-01-11T05:11:21;28.27;;;15.55;;
78324;SDS011;67584;51.400;6.692;2024-01-11T05:13:51;35.17;;;17.88;;
78324;SDS011;67584;51.400;6.692;2024-01-11T05:16:24;32.03;;;16.27;;
78324;SDS011;67584;51.400;6.692;2024-01-11T05:18:52;32.22;;;16.90;;
78324;SDS011;67584;51.400;6.692;2024-01-11T05:21:19;29.52;;;15.38;;
78324;SDS011;67584;51.400;6.692;2024-01-11T05:23:45;31.98;;;16.00;;
78324;SDS011;67584;51.400;6.692;2024-01-11T05:26:12;29.17;;;15.27;;
78324;SDS011;67584;51.400;6.692;2024-01-11T05:28:39;28.50;;;15.25;;
78324;SDS011;67584;51.400;6.692;2024-01-11T05:31:06;29.60;;;14.50;;
78324;SDS011;67584;51.400;6.692;2024-01-11T05:33:34;29.58;;;16.40;;
78324;SDS011;67584;51.400;6.692;2024-01-11T05:36:00;32.05;;;16.40;;
78324;SDS011;67584;51.400;6.692;2024-01-11T05:38:26;29.15;;;15.05;;
78324;SDS011;67584;51.400;6.692;2024-01-11T05:40:52;30.42;;;16.05;;
78324;SDS011;67584;51.400;6.692;2024-01-11T05:43:18;30.20;;;16.27;;
78324;SDS011;67584;51.400;6.692;2024-01-11T05:45:44;33.42;;;17.25;;
78324;SDS011;67584;51.400;6.692;2024-01-11T05:48:11;42.05;;;17.58;;
78324;SDS011;67584;51.400;6.692;2024-01-11T05:50:37;33.65;;;16.73;;
78324;SDS011;67584;51.400;6.692;2024-01-11T05:53:03;32.78;;;17.67;;
78324;SDS011;67584;51.400;6.692;2024-01-11T05:55:29;31.30;;;17.92;;
78324;SDS011;67584;51.400;6.692;2024-01-11T06:03:02;32.05;;;14.70;;
78324;SDS011;67584;51.400;6.692;2024-01-11T06:05:29;28.20;;;14.88;;
78324;SDS011;67584;51.400;6.692;2024-01-11T06:14:23;33.80;;;17.17;;
78324;SDS011;67584;51.400;6.692;2024-01-11T06:16:49;29.63;;;16.63;;
78324;SDS011;67584;51.400;6.692;2024-01-11T06:19:15;27.38;;;15.40;;
78324;SDS011;67584;51.400;6.692;2024-01-11T06:21:40;27.80;;;15.18;;
78324;SDS011;67584;51.400;6.692;2024-01-11T06:24:06;33.13;;;16.67;;
78324;SDS011;67584;51.400;6.692;2024-01-11T06:26:32;30.98;;;16.10;;
78324;SDS011;67584;51.400;6.692;2024-01-11T06:28:58;38.10;;;16.45;;
78324;SDS011;67584;51.400;6.692;2024-01-11T06:31:24;35.08;;;18.70;;
78324;SDS011;67584;51.400;6.692;2024-01-11T06:33:49;31.27;;;16.45;;
78324;SDS011;67584;51.400;6.692;2024-01-11T06:36:15;31.42;;;17.38;;
78324;SDS011;67584;51.400;6.692;2024-01-11T06:38:41;31.98;;;17.40;;
78324;SDS011;67584;51.400;6.692;2024-01-11T06:41:07;28.40;;;16.27;;
78324;SDS011;67584;51.400;6.692;2024-01-11T06:43:32;28.20;;;15.25;;
78324;SDS011;67584;51.400;6.692;2024-01-11T06:46:02;25.35;;;15.65;;
78324;SDS011;67584;51.400;6.692;2024-01-11T06:48:29;32.47;;;17.17;;
78324;SDS011;67584;51.400;6.692;2024-01-11T06:50:55;31.60;;;16.45;;
78324;SDS011;67584;51.400;6.692;2024-01-11T06:53:20;34.30;;;17.73;;
78324;SDS011;67584;51.400;6.692;2024-01-11T06:55:46;33.67;;;17.50;;
78324;SDS011;67584;51.400;6.692;2024-01-11T06:58:13;34.75;;;16.90;;
78324;SDS011;67584;51.400;6.692;2024-01-11T07:00:38;33.65;;;17.23;;
78324;SDS011;67584;51.400;6.692;2024-01-11T07:03:10;29.83;;;17.20;;
78324;SDS011;67584;51.400;6.692;2024-01-11T07:05:37;37.78;;;16.83;;
78324;SDS011;67584;51.400;6.692;2024-01-11T07:08:02;30.83;;;16.95;;
78324;SDS011;67584;51.400;6.692;2024-01-11T07:10:29;31.13;;;16.02;;
78324;SDS011;67584;51.400;6.692;2024-01-11T07:12:55;35.67;;;17.55;;
78324;SDS011;67584;51.400;6.692;2024-01-11T07:15:20;31.90;;;16.25;;
78324;SDS011;67584;51.400;6.692;2024-01-11T07:17:46;28.77;;;16.40;;
78324;SDS011;67584;51.400;6.692;2024-01-11T07:20:12;30.35;;;17.25;;
78324;SDS011;67584;51.400;6.692;2024-01-11T07:22:38;30.75;;;16.27;;
78324;SDS011;67584;51.400;6.692;2024-01-11T07:25:04;32.03;;;15.57;;
78324;SDS011;67584;51.400;6.692;2024-01-11T07:27:29;28.40;;;17.73;;
78324;SDS011;67584;51.400;6.692;2024-01-11T07:29:55;31.35;;;16.85;;
78324;SDS011;67584;51.400;6.692;2024-01-11T07:32:20;30.98;;;16.52;;
78324;SDS011;67584;51.400;6.692;2024-01-11T07:34:47;30.42;;;15.75;;
78324;SDS011;67584;51.400;6.692;2024-01-11T07:37:12;32.42;;;16.98;;
78324;SDS011;67584;51.400;6.692;2024-01-11T07:39:38;36.55;;;18.88;;
78324;SDS011;67584;51.400;6.692;2024-01-11T07:42:04;35.78;;;18.63;;
78324;SDS011;67584;51.400;6.692;2024-01-11T07:44:29;29.77;;;16.85;;
78324;SDS011;67584;51.400;6.692;2024-01-11T07:46:55;30.30;;;17.63;;
78324;SDS011;67584;51.400;6.692;2024-01-11T07:49:21;30.65;;;17.75;;
78324;SDS011;67584;51.400;6.692;2024-01-11T07:51:46;28.25;;;16.73;;
78324;SDS011;67584;51.400;6.692;2024-01-11T07:54:12;33.58;;;17.58;;
78324;SDS011;67584;51.400;6.692;2024-01-11T07:56:37;33.08;;;16.10;;
78324;SDS011;67584;51.400;6.692;2024-01-11T07:59:03;33.90;;;18.60;;
78324;SDS011;67584;51.400;6.692;2024-01-11T08:01:29;31.80;;;17.80;;
78324;SDS011;67584;51.400;6.692;2024-01-11T08:03:55;34.95;;;18.20;;
78324;SDS011;67584;51.400;6.692;2024-01-11T08:06:21;29.02;;;16.92;;
78324;SDS011;67584;51.400;6.692;2024-01-11T08:08:46;32.92;;;18.23;;
78324;SDS011;67584;51.400;6.692;2024-01-11T08:11:17;39.53;;;18.60;;
78324;SDS011;67584;51.400;6.692;2024-01-11T08:13:43;39.75;;;18.35;;
78324;SDS011;67584;51.400;6.692;2024-01-11T08:16:14;32.88;;;16.77;;
78324;SDS011;67584;51.400;6.692;2024-01-11T08:18:41;34.22;;;17.45;;
78324;SDS011;67584;51.400;6.692;2024-01-11T08:21:07;31.70;;;17.20;;
78324;SDS011;67584;51.400;6.692;2024-01-11T08:23:34;32.75;;;18.80;;
78324;SDS011;67584;51.400;6.692;2024-01-11T08:26:00;36.60;;;19.17;;
78324;SDS011;67584;51.400;6.692;2024-01-11T08:28:25;38.70;;;17.98;;
78324;SDS011;67584;51.400;6.692;2024-01-11T08:30:51;33.25;;;18.13;;
78324;SDS011;67584;51.400;6.692;2024-01-11T08:33:17;28.48;;;18.00;;
78324;SDS011;67584;51.400;6.692;2024-01-11T08:35:42;33.53;;;19.13;;
78324;SDS011;67584;51.400;6.692;2024-01-11T08:38:08;36.60;;;19.35;;
78324;SDS011;67584;51.400;6.692;2024-01-11T08:40:34;32.88;;;17.38;;
78324;SDS011;67584;51.400;6.692;2024-01-11T08:43:00;39.38;;;17.88;;
78324;SDS011;67584;51.400;6.692;2024-01-11T08:45:26;34.15;;;17.60;;
78324;SDS011;67584;51.400;6.692;2024-01-11T08:47:51;26.25;;;16.75;;
78324;SDS011;67584;51.400;6.692;2024-01-11T08:50:17;33.33;;;17.83;;
78324;SDS011;67584;51.400;6.692;2024-01-11T08:52:43;31.98;;;18.40;;
78324;SDS011;67584;51.400;6.692;2024-01-11T08:55:08;40.15;;;17.48;;
78324;SDS011;67584;51.400;6.692;2024-01-11T08:57:35;33.78;;;15.63;;
78324;SDS011;67584;51.400;6.692;2024-01-11T09:00:04;38.55;;;19.63;;
78324;SDS011;67584;51.400;6.692;2024-01-11T09:02:33;38.33;;;18.92;;
78324;SDS011;67584;51.400;6.692;2024-01-11T09:05:00;38.72;;;18.25;;
78324;SDS011;67584;51.400;6.692;2024-01-11T09:07:27;35.22;;;18.58;;
78324;SDS011;67584;51.400;6.692;2024-01-11T09:09:52;36.40;;;18.58;;
78324;SDS011;67584;51.400;6.692;2024-01-11T09:12:19;35.97;;;18.58;;
78324;SDS011;67584;51.400;6.692;2024-01-11T09:14:45;38.40;;;17.52;;
78324;SDS011;67584;51.400;6.692;2024-01-11T09:17:11;39.40;;;19.20;;
78324;SDS011;67584;51.400;6.692;2024-01-11T09:19:36;34.35;;;19.00;;
78324;SDS011;67584;51.400;6.692;2024-01-11T09:22:05;40.60;;;19.80;;
78324;SDS011;67584;51.400;6.692;2024-01-11T09:24:31;34.58;;;18.90;;
78324;SDS011;67584;51.400;6.692;2024-01-11T09:26:57;33.40;;;18.83;;
78324;SDS011;67584;51.400;6.692;2024-01-11T09:29:22;33.28;;;19.55;;
78324;SDS011;67584;51.400;6.692;2024-01-11T09:31:48;36.88;;;19.15;;
78324;SDS011;67584;51.400;6.692;2024-01-11T09:34:14;36.75;;;20.30;;
78324;SDS011;67584;51.400;6.692;2024-01-11T09:36:39;31.15;;;19.02;;
78324;SDS011;67584;51.400;6.692;2024-01-11T09:39:05;37.53;;;18.67;;
78324;SDS011;67584;51.400;6.692;2024-01-11T09:41:31;31.52;;;17.70;;
78324;SDS011;67584;51.400;6.692;2024-01-11T09:43:57;33.28;;;18.23;;
78324;SDS011;67584;51.400;6.692;2024-01-11T09:48:53;31.38;;;18.83;;
78324;SDS011;67584;51.400;6.692;2024-01-11T09:51:20;35.38;;;18.58;;
78324;SDS011;67584;51.400;6.692;2024-01-11T09:53:46;35.30;;;19.15;;
78324;SDS011;67584;51.400;6.692;2024-01-11T09:56:16;34.47;;;20.40;;
78324;SDS011;67584;51.400;6.692;2024-01-11T09:58:45;34.88;;;19.67;;
78324;SDS011;67584;51.400;6.692;2024-01-11T10:01:15;31.13;;;18.40;;
78324;SDS011;67584;51.400;6.692;2024-01-11T10:03:42;35.10;;;19.77;;
78324;SDS011;67584;51.400;6.692;2024-01-11T10:06:08;36.92;;;21.63;;
78324;SDS011;67584;51.400;6.692;2024-01-11T10:08:35;32.67;;;20.50;;
78324;SDS011;67584;51.400;6.692;2024-01-11T10:11:02;36.22;;;20.58;;
78324;SDS011;67584;51.400;6.692;2024-01-11T10:13:28;35.03;;;21.80;;
78324;SDS011;67584;51.400;6.692;2024-01-11T10:18:38;37.30;;;22.13;;
78324;SDS011;67584;51.400;6.692;2024-01-11T10:21:04;39.50;;;23.25;;
78324;SDS011;67584;51.400;6.692;2024-01-11T10:23:33;32.50;;;21.20;;
78324;SDS011;67584;51.400;6.692;2024-01-11T10:25:59;37.63;;;22.50;;
78324;SDS011;67584;51.400;6.692;2024-01-11T10:28:25;36.08;;;22.35;;
78324;SDS011;67584;51.400;6.692;2024-01-11T10:30:51;35.22;;;21.45;;
78324;SDS011;67584;51.400;6.692;2024-01-11T10:33:21;36.75;;;21.92;;
78324;SDS011;67584;51.400;6.692;2024-01-11T10:35:47;35.42;;;19.40;;
78324;SDS011;67584;51.400;6.692;2024-01-11T10:38:15;33.17;;;21.08;;
78324;SDS011;67584;51.400;6.692;2024-01-11T10:40:41;29.80;;;20.60;;
78324;SDS011;67584;51.400;6.692;2024-01-11T10:43:10;38.60;;;23.42;;
78324;SDS011;67584;51.400;6.692;2024-01-11T10:45:37;36.72;;;22.88;;
78324;SDS011;67584;51.400;6.692;2024-01-11T10:48:16;36.80;;;21.70;;
78324;SDS011;67584;51.400;6.692;2024-01-11T10:50:42;37.22;;;21.92;;
78324;SDS011;67584;51.400;6.692;2024-01-11T10:55:43;39.05;;;24.23;;
78324;SDS011;67584;51.400;6.692;2024-01-11T10:58:09;32.28;;;22.20;;
78324;SDS011;67584;51.400;6.692;2024-01-11T11:00:36;31.70;;;20.25;;
78324;SDS011;67584;51.400;6.692;2024-01-11T11:03:03;33.95;;;21.27;;
78324;SDS011;67584;51.400;6.692;2024-01-11T11:05:31;30.05;;;19.58;;
78324;SDS011;67584;51.400;6.692;2024-01-11T11:08:00;36.58;;;21.00;;
78324;SDS011;67584;51.400;6.692;2024-01-11T11:10:27;33.05;;;21.88;;
78324;SDS011;67584;51.400;6.692;2024-01-11T11:12:55;33.70;;;20.73;;
78324;SDS011;67584;51.400;6.692;2024-01-11T11:15:23;33.50;;;21.42;;
78324;SDS011;67584;51.400;6.692;2024-01-11T11:17:50;33.30;;;20.77;;
78324;SDS011;67584;51.400;6.692;2024-01-11T11:20:15;30.60;;;20.30;;
78324;SDS011;67584;51.400;6.692;2024-01-11T11:22:42;29.98;;;20.40;;
78324;SDS011;67584;51.400;6.692;2024-01-11T11:25:08;33.53;;;21.63;;
78324;SDS011;67584;51.400;6.692;2024-01-11T11:27:38;30.05;;;20.55;;
78324;SDS011;67584;51.400;6.692;2024-01-11T11:32:34;31.88;;;21.52;;
78324;SDS011;67584;51.400;6.692;2024-01-11T11:35:04;29.95;;;20.73;;
78324;SDS011;67584;51.400;6.692;2024-01-11T11:37:30;29.67;;;19.45;;
78324;SDS011;67584;51.400;6.692;2024-01-11T11:39:59;29.98;;;19.95;;
78324;SDS011;67584;51.400;6.692;2024-01-11T11:42:25;33.15;;;21.08;;
78324;SDS011;67584;51.400;6.692;2024-01-11T11:44:51;28.83;;;20.15;;
78324;SDS011;67584;51.400;6.692;2024-01-11T11:47:21;28.05;;;19.85;;
78324;SDS011;67584;51.400;6.692;2024-01-11T11:50:06;27.30;;;20.13;;
78324;SDS011;67584;51.400;6.692;2024-01-11T11:52:37;30.77;;;20.85;;
78324;SDS011;67584;51.400;6.692;2024-01-11T11:55:05;30.48;;;21.40;;
78324;SDS011;67584;51.400;6.692;2024-01-11T11:57:32;29.85;;;21.10;;
78324;SDS011;67584;51.400;6.692;2024-01-11T11:59:58;29.80;;;20.95;;
78324;SDS011;67584;51.400;6.692;2024-01-11T12:02:28;31.85;;;21.75;;
78324;SDS011;67584;51.400;6.692;2024-01-11T12:04:53;27.45;;;19.75;;
78324;SDS011;67584;51.400;6.692;2024-01-11T12:07:20;32.20;;;21.02;;
78324;SDS011;67584;51.400;6.692;2024-01-11T12:09:47;29.88;;;21.73;;
78324;SDS011;67584;51.400;6.692;2024-01-11T12:12:13;28.75;;;20.23;;
78324;SDS011;67584;51.400;6.692;2024-01-11T12:14:40;29.40;;;19.40;;
78324;SDS011;67584;51.400;6.692;2024-01-11T12:17:06;32.63;;;19.83;;
78324;SDS011;67584;51.400;6.692;2024-01-11T12:19:32;28.77;;;20.27;;
78324;SDS011;67584;51.400;6.692;2024-01-11T12:21:58;32.10;;;19.10;;
78324;SDS011;67584;51.400;6.692;2024-01-11T12:24:24;28.75;;;18.73;;
78324;SDS011;67584;51.400;6.692;2024-01-11T12:26:50;29.42;;;19.77;;
78324;SDS011;67584;51.400;6.692;2024-01-11T12:29:19;25.63;;;19.73;;
78324;SDS011;67584;51.400;6.692;2024-01-11T12:31:45;32.15;;;20.13;;
78324;SDS011;67584;51.400;6.692;2024-01-11T12:34:11;28.02;;;20.42;;
78324;SDS011;67584;51.400;6.692;2024-01-11T12:36:37;30.80;;;21.27;;
78324;SDS011;67584;51.400;6.692;2024-01-11T12:39:03;26.83;;;18.50;;
78324;SDS011;67584;51.400;6.692;2024-01-11T12:41:31;26.85;;;18.40;;
78324;SDS011;67584;51.400;6.692;2024-01-11T12:43:58;29.70;;;19.70;;
78324;SDS011;67584;51.400;6.692;2024-01-11T12:46:24;27.92;;;16.60;;
78324;SDS011;67584;51.400;6.692;2024-01-11T12:48:50;27.30;;;18.88;;
78324;SDS011;67584;51.400;6.692;2024-01-11T12:51:16;26.10;;;18.50;;
78324;SDS011;67584;51.400;6.692;2024-01-11T12:53:46;26.52;;;18.67;;
78324;SDS011;67584;51.400;6.692;2024-01-11T12:56:14;27.80;;;18.42;;
78324;SDS011;67584;51.400;6.692;2024-01-11T12:58:41;24.42;;;18.20;;
78324;SDS011;67584;51.400;6.692;2024-01-11T13:01:07;25.25;;;17.98;;
78324;SDS011;67584;51.400;6.692;2024-01-11T13:03:33;26.30;;;18.38;;
78324;SDS011;67584;51.400;6.692;2024-01-11T13:06:01;24.95;;;17.92;;
78324;SDS011;67584;51.400;6.692;2024-01-11T13:08:29;25.40;;;16.90;;
78324;SDS011;67584;51.400;6.692;2024-01-11T13:11:01;22.48;;;15.32;;
78324;SDS011;67584;51.400;6.692;2024-01-11T13:13:32;21.85;;;15.55;;
78324;SDS011;67584;51.400;6.692;2024-01-11T13:16:01;22.60;;;16.05;;
78324;SDS011;67584;51.400;6.692;2024-01-11T13:18:39;24.90;;;16.02;;
78324;SDS011;67584;51.400;6.692;2024-01-11T13:21:05;23.00;;;15.80;;
78324;SDS011;67584;51.400;6.692;2024-01-11T13:23:31;21.08;;;15.57;;
78324;SDS011;67584;51.400;6.692;2024-01-11T13:25:57;21.27;;;15.93;;
78324;SDS011;67584;51.400;6.692;2024-01-11T13:28:23;21.17;;;15.25;;
78324;SDS011;67584;51.400;6.692;2024-01-11T13:30:48;20.25;;;14.80;;
78324;SDS011;67584;51.400;6.692;2024-01-11T13:33:14;21.27;;;14.88;;
78324;SDS011;67584;51.400;6.692;2024-01-11T13:35:42;19.33;;;14.50;;
78324;SDS011;67584;51.400;6.692;2024-01-11T13:38:08;17.60;;;15.07;;
78324;SDS011;67584;51.400;6.692;2024-01-11T13:40:34;19.75;;;14.77;;
78324;SDS011;67584;51.400;6.692;2024-01-11T13:43:00;20.42;;;14.35;;
78324;SDS011;67584;51.400;6.692;2024-01-11T13:45:28;19.70;;;15.05;;
78324;SDS011;67584;51.400;6.692;2024-01-11T13:47:55;18.90;;;14.00;;
78324;SDS011;67584;51.400;6.692;2024-01-11T13:50:24;16.33;;;13.57;;
78324;SDS011;67584;51.400;6.692;2024-01-11T13:52:49;18.17;;;14.95;;
78324;SDS011;67584;51.400;6.692;2024-01-11T13:55:15;19.30;;;15.55;;
78324;SDS011;67584;51.400;6.692;2024-01-11T13:57:46;23.13;;;15.45;;
78324;SDS011;67584;51.400;6.692;2024-01-11T14:00:12;23.30;;;17.15;;
78324;SDS011;67584;51.400;6.692;2024-01-11T14:02:38;20.17;;;14.73;;
78324;SDS011;67584;51.400;6.692;2024-01-11T14:05:05;22.80;;;15.02;;
78324;SDS011;67584;51.400;6.692;2024-01-11T14:07:37;19.65;;;15.60;;
78324;SDS011;67584;51.400;6.692;2024-01-11T14:10:04;21.10;;;13.93;;
78324;SDS011;67584;51.400;6.692;2024-01-11T14:12:31;21.30;;;15.07;;
78324;SDS011;67584;51.400;6.692;2024-01-11T14:14:57;20.15;;;15.20;;
78324;SDS011;67584;51.400;6.692;2024-01-11T14:17:23;19.98;;;14.27;;
78324;SDS011;67584;51.400;6.692;2024-01-11T14:19:48;21.95;;;14.57;;
78324;SDS011;67584;51.400;6.692;2024-01-11T14:22:14;22.05;;;14.65;;
78324;SDS011;67584;51.400;6.692;2024-01-11T14:24:40;24.08;;;15.70;;
78324;SDS011;67584;51.400;6.692;2024-01-11T14:27:05;25.00;;;16.17;;
78324;SDS011;67584;51.400;6.692;2024-01-11T14:29:31;21.52;;;15.75;;
78324;SDS011;67584;51.400;6.692;2024-01-11T14:31:57;22.15;;;13.98;;
78324;SDS011;67584;51.400;6.692;2024-01-11T14:34:22;20.83;;;14.32;;
78324;SDS011;67584;51.400;6.692;2024-01-11T14:36:49;23.25;;;14.75;;
78324;SDS011;67584;51.400;6.692;2024-01-11T14:39:15;24.00;;;15.25;;
78324;SDS011;67584;51.400;6.692;2024-01-11T14:41:40;24.05;;;15.18;;
78324;SDS011;67584;51.400;6.692;2024-01-11T14:44:06;19.52;;;13.15;;
78324;SDS011;67584;51.400;6.692;2024-01-11T14:46:32;23.05;;;14.43;;
78324;SDS011;67584;51.400;6.692;2024-01-11T14:48:58;20.42;;;13.43;;
78324;SDS011;67584;51.400;6.692;2024-01-11T14:51:25;22.02;;;13.27;;